Mount Gilead, Ohio
Current Conditions -  °F | °C
As of 12:53 AM on Saturday 25 Oct 2014 (Local Time) from KMNN Reporting Station
Broken Clouds Broken Clouds  
Wind Chill: 50°   Ceiling: 4000
Heat Index: 50°   Visibility: 7mi
Dew Point: 40°   Wind: 5mph
Humidity: 68%   Direction: 210°SSW
Pressure: 30"   Gusts: NA
Location:  40.55°N, 82.83°W
Report Text: KMNN 250453Z AUTO 21004KT 7SM BKN040 10/04 A3000 RMK AO2 SLP161 T01000044 401780017 TSNO
Loading
Personal Weather Stations






























Interactive Weather Map
Tropical Storm Tracking
New forecast layout! Learn more

10-Day Weather Forecast

Advertisements
Track Severe Weather on mobile